Time;durP1;ratioP1;P1;durP2;ratioP2;P2;SDS_P1;SDS_P2;PMS_P1;PMS_P2;Temp;Humidity;BMP_temperature;BMP_pressure;BME280_temperature;BME280_humidity;BME280_pressure;Samples;Min_cycle;Max_cycle;Signal;HPM_P1;HPM_P2
2023/08/16 00:01:23;;;;;;;;;;;17.80;99.90;;;;;;8424488;28;19928;-70
2023/08/16 00:05:25;;;;;;;;;;;17.80;99.90;;;;;;8406075;28;19925;-70
2023/08/16 00:09:26;;;;;;;;;;;17.80;99.90;;;;;;8420960;28;19924;-70
2023/08/16 00:13:28;;;;;;;;;;;17.70;99.90;;;;;;8418587;28;20387;-70
2023/08/16 00:17:30;;;;;;;;;;;17.70;99.90;;;;;;8423914;28;19933;-70
2023/08/16 00:21:31;;;;;;;;;;;17.70;99.90;;;;;;8404230;28;19924;-70
2023/08/16 00:25:33;;;;;;;;;;;17.70;99.90;;;;;;8403766;28;19932;-70
2023/08/16 00:29:35;;;;;;;;;;;17.70;99.90;;;;;;8392767;28;19924;-70
2023/08/16 00:33:36;;;;;;;;;;;17.70;99.90;;;;;;8389269;28;19970;-70
2023/08/16 00:37:38;;;;;;;;;;;17.60;99.90;;;;;;8425064;28;19924;-70
2023/08/16 00:41:40;;;;;;;;;;;17.60;99.90;;;;;;8404958;28;19931;-70
2023/08/16 00:45:42;;;;;;;;;;;17.60;99.90;;;;;;8412604;28;20372;-70
2023/08/16 00:49:44;;;;;;;;;;;17.50;99.90;;;;;;8411104;28;20303;-70
2023/08/16 00:53:45;;;;;;;;;;;17.50;99.90;;;;;;8395759;28;19924;-70
2023/08/16 00:57:48;;;;;;;;;;;17.40;99.90;;;;;;8407499;28;19924;-70
2023/08/16 01:01:50;;;;;;;;;;;17.30;99.90;;;;;;8415731;28;20304;-70
2023/08/16 01:05:52;;;;;;;;;;;17.30;99.90;;;;;;8414668;28;20008;-70
2023/08/16 01:09:53;;;;;;;;;;;17.30;99.90;;;;;;8404959;28;20399;-70
2023/08/16 01:14:01;;;;;;;;;;;17.30;99.90;;;;;;8416842;28;19924;-70
2023/08/16 01:18:03;;;;;;;;;;;17.30;99.90;;;;;;8423867;28;19929;-70
2023/08/16 01:22:14;;;;;;;;;;;17.30;99.90;;;;;;8411465;28;19923;-70
2023/08/16 01:26:16;;;;;;;;;;;17.20;99.90;;;;;;8419270;28;20240;-70
2023/08/16 01:30:18;;;;;;;;;;;17.20;99.90;;;;;;8399214;28;20393;-70
2023/08/16 01:34:19;;;;;;;;;;;17.10;99.90;;;;;;8410693;28;19931;-70
2023/08/16 01:38:21;;;;;;;;;;;17.10;99.90;;;;;;8429877;28;20421;-70
2023/08/16 01:42:23;;;;;;;;;;;17.10;99.90;;;;;;8434827;28;19928;-70
2023/08/16 01:46:25;;;;;;;;;;;17.10;99.90;;;;;;8427961;28;20323;-70
2023/08/16 01:50:27;;;;;;;;;;;16.90;99.90;;;;;;8423576;28;19927;-70
2023/08/16 01:54:29;;;;;;;;;;;16.90;99.90;;;;;;8436285;28;19924;-70
2023/08/16 01:58:31;;;;;;;;;;;16.90;99.90;;;;;;8417587;28;19927;-70
2023/08/16 02:02:33;;;;;;;;;;;16.80;99.90;;;;;;8422103;28;19924;-70
2023/08/16 02:06:34;;;;;;;;;;;16.80;99.90;;;;;;8398501;28;20295;-70
2023/08/16 02:10:36;;;;;;;;;;;16.80;99.90;;;;;;8419839;28;20222;-70
2023/08/16 02:14:38;;;;;;;;;;;16.80;99.90;;;;;;8407221;28;19931;-70
2023/08/16 02:18:40;;;;;;;;;;;16.80;99.90;;;;;;8425155;28;19928;-70
2023/08/16 02:22:44;;;;;;;;;;;16.80;99.90;;;;;;8423039;28;19927;-70
2023/08/16 02:26:45;;;;;;;;;;;16.70;99.90;;;;;;8421631;28;19925;-70
2023/08/16 02:30:47;;;;;;;;;;;16.60;99.90;;;;;;8416899;28;19946;-70
2023/08/16 02:34:49;;;;;;;;;;;16.60;99.90;;;;;;8413458;28;19932;-70
2023/08/16 02:38:50;;;;;;;;;;;16.60;99.90;;;;;;8424668;28;19928;-70
2023/08/16 02:42:52;;;;;;;;;;;16.50;99.90;;;;;;8423318;28;19931;-70
2023/08/16 02:46:53;;;;;;;;;;;16.50;99.90;;;;;;8414823;28;20390;-70
2023/08/16 02:50:55;;;;;;;;;;;16.50;99.90;;;;;;8414680;28;19924;-70
2023/08/16 02:54:57;;;;;;;;;;;16.50;99.90;;;;;;8413531;28;19978;-70
2023/08/16 02:58:59;;;;;;;;;;;16.50;99.90;;;;;;8431226;28;19924;-70
2023/08/16 03:03:00;;;;;;;;;;;16.60;99.90;;;;;;8412912;28;19928;-70
2023/08/16 03:07:03;;;;;;;;;;;16.60;99.90;;;;;;8427836;28;19925;-70
2023/08/16 03:11:05;;;;;;;;;;;16.60;99.90;;;;;;8425467;28;20319;-70
2023/08/16 03:15:07;;;;;;;;;;;16.50;99.90;;;;;;8425258;28;19927;-69
2023/08/16 03:19:10;;;;;;;;;;;16.50;99.90;;;;;;8413940;28;20368;-70
2023/08/16 03:23:11;;;;;;;;;;;16.40;99.90;;;;;;8414245;28;19925;-70
2023/08/16 03:27:13;;;;;;;;;;;16.40;99.90;;;;;;8429104;28;19977;-70
2023/08/16 03:31:15;;;;;;;;;;;16.30;99.90;;;;;;8413806;28;20372;-70
2023/08/16 03:35:16;;;;;;;;;;;16.30;99.90;;;;;;8388661;28;19924;-70
2023/08/16 03:39:18;;;;;;;;;;;16.30;99.90;;;;;;8410710;28;19924;-70
2023/08/16 03:43:20;;;;;;;;;;;16.30;99.90;;;;;;8411533;28;19932;-70
2023/08/16 03:47:21;;;;;;;;;;;16.20;99.90;;;;;;8421368;28;19929;-70
2023/08/16 03:51:27;;;;;;;;;;;16.10;99.90;;;;;;8428866;28;19998;-70
2023/08/16 03:55:28;;;;;;;;;;;16.10;99.90;;;;;;8422256;28;19925;-70
2023/08/16 03:59:30;;;;;;;;;;;16.10;99.90;;;;;;8423153;28;20017;-70
2023/08/16 04:03:32;;;;;;;;;;;16.10;99.90;;;;;;8427386;28;19978;-70
2023/08/16 04:07:34;;;;;;;;;;;16.10;99.90;;;;;;8418965;28;19924;-70
2023/08/16 04:11:35;;;;;;;;;;;16.10;99.90;;;;;;8426485;28;19973;-69
2023/08/16 04:15:37;;;;;;;;;;;16.10;99.90;;;;;;8426161;28;19931;-70
2023/08/16 04:19:39;;;;;;;;;;;16.00;99.90;;;;;;8414830;28;20335;-70
2023/08/16 04:23:40;;;;;;;;;;;16.00;99.90;;;;;;8423431;28;19929;-69
2023/08/16 04:27:43;;;;;;;;;;;16.00;99.90;;;;;;8409375;28;19977;-70
2023/08/16 04:31:44;;;;;;;;;;;15.90;99.90;;;;;;8429131;28;19923;-70
2023/08/16 04:35:46;;;;;;;;;;;15.90;99.90;;;;;;8422653;28;20395;-70
2023/08/16 04:39:48;;;;;;;;;;;15.80;99.90;;;;;;8422383;28;20406;-70
2023/08/16 04:43:50;;;;;;;;;;;15.80;99.90;;;;;;8423281;28;19925;-70
2023/08/16 04:47:51;;;;;;;;;;;15.80;99.90;;;;;;8421732;28;21811;-70
2023/08/16 04:51:53;;;;;;;;;;;15.80;99.90;;;;;;8406486;28;20281;-71
2023/08/16 04:55:55;;;;;;;;;;;15.80;99.90;;;;;;8415168;28;20271;-70
2023/08/16 04:59:57;;;;;;;;;;;15.70;99.90;;;;;;8421257;28;20402;-70
2023/08/16 05:03:59;;;;;;;;;;;15.70;99.90;;;;;;8381558;28;19924;-70
2023/08/16 05:08:01;;;;;;;;;;;15.70;99.90;;;;;;8424306;28;19981;-71
2023/08/16 05:12:03;;;;;;;;;;;15.80;99.90;;;;;;8442606;28;20002;-71
2023/08/16 05:16:05;;;;;;;;;;;15.90;99.90;;;;;;8409096;28;19928;-71
2023/08/16 05:20:07;;;;;;;;;;;15.90;99.90;;;;;;8409407;28;19928;-70
2023/08/16 05:24:09;;;;;;;;;;;16.00;99.90;;;;;;8396361;28;20291;-70
2023/08/16 05:28:10;;;;;;;;;;;16.10;99.90;;;;;;8405455;28;20002;-70
2023/08/16 05:32:12;;;;;;;;;;;16.20;99.90;;;;;;8409378;28;19974;-70
2023/08/16 05:36:14;;;;;;;;;;;16.30;99.90;;;;;;8407424;28;19924;-70
2023/08/16 05:40:16;;;;;;;;;;;16.50;99.90;;;;;;8409705;28;20387;-70
2023/08/16 05:44:18;;;;;;;;;;;16.60;99.90;;;;;;8407282;28;19929;-70
2023/08/16 05:48:19;;;;;;;;;;;16.80;99.90;;;;;;8408473;28;19925;-70
2023/08/16 05:52:21;;;;;;;;;;;17.00;99.90;;;;;;8397716;28;20395;-70
2023/08/16 05:56:23;;;;;;;;;;;17.20;99.90;;;;;;8417518;28;19974;-70
2023/08/16 06:00:24;;;;;;;;;;;17.30;99.90;;;;;;8420052;28;20292;-70
2023/08/16 06:04:26;;;;;;;;;;;17.60;99.90;;;;;;8404037;28;19929;-71
2023/08/16 06:08:28;;;;;;;;;;;17.70;99.90;;;;;;8406163;28;19931;-70
2023/08/16 06:12:29;;;;;;;;;;;17.90;99.90;;;;;;8413168;28;19925;-70
2023/08/16 06:16:31;;;;;;;;;;;18.10;99.90;;;;;;8416282;28;19924;-70
2023/08/16 06:20:34;;;;;;;;;;;18.20;99.90;;;;;;8430010;28;19950;-70
2023/08/16 06:24:36;;;;;;;;;;;18.30;99.90;;;;;;8410741;28;20394;-71
2023/08/16 06:28:38;;;;;;;;;;;18.40;99.90;;;;;;8410416;28;19945;-70
2023/08/16 06:32:39;;;;;;;;;;;18.40;99.90;;;;;;8419538;28;19924;-71
2023/08/16 06:36:41;;;;;;;;;;;18.50;99.90;;;;;;8416012;28;19925;-70
2023/08/16 06:40:43;;;;;;;;;;;18.60;99.90;;;;;;8399463;28;19962;-71
2023/08/16 06:44:45;;;;;;;;;;;18.60;99.90;;;;;;8399740;28;19925;-70
2023/08/16 06:48:47;;;;;;;;;;;18.70;99.90;;;;;;8402785;28;19924;-70
2023/08/16 06:52:49;;;;;;;;;;;18.70;99.90;;;;;;8410835;28;19932;-71
2023/08/16 06:56:53;;;;;;;;;;;18.80;99.90;;;;;;8401173;28;19974;-71
2023/08/16 07:00:55;;;;;;;;;;;18.90;99.90;;;;;;8409754;28;19932;-70
2023/08/16 07:04:56;;;;;;;;;;;19.00;99.90;;;;;;8401670;28;19985;-70
2023/08/16 07:08:59;;;;;;;;;;;19.00;99.90;;;;;;8401465;28;19940;-71
2023/08/16 07:13:00;;;;;;;;;;;19.10;99.90;;;;;;8421090;28;19929;-70
2023/08/16 07:17:05;;;;;;;;;;;19.20;99.90;;;;;;8407369;28;20324;-70
2023/08/16 07:21:06;;;;;;;;;;;19.30;99.90;;;;;;8381841;28;19934;-70
2023/08/16 07:25:09;;;;;;;;;;;19.40;99.90;;;;;;8385587;28;20435;-71
2023/08/16 07:29:11;;;;;;;;;;;19.50;99.90;;;;;;8405353;28;20047;-70
2023/08/16 07:33:13;;;;;;;;;;;19.60;99.90;;;;;;8405415;28;20438;-70
2023/08/16 07:37:14;;;;;;;;;;;19.60;99.90;;;;;;8406598;28;19951;-70
2023/08/16 07:41:16;;;;;;;;;;;19.70;99.90;;;;;;8410040;28;19924;-70
2023/08/16 07:45:18;;;;;;;;;;;19.70;99.90;;;;;;8400713;28;19928;-70
2023/08/16 07:49:19;;;;;;;;;;;19.80;99.90;;;;;;8405704;28;19933;-70
2023/08/16 07:53:22;;;;;;;;;;;19.80;99.90;;;;;;8401717;28;19929;-71
2023/08/16 07:57:24;;;;;;;;;;;19.90;99.90;;;;;;8406571;28;20286;-70
2023/08/16 08:01:26;;;;;;;;;;;19.90;99.90;;;;;;8404221;28;20265;-70
2023/08/16 08:05:30;;;;;;;;;;;20.00;99.90;;;;;;8399646;28;19928;-70
2023/08/16 08:09:34;;;;;;;;;;;20.00;99.90;;;;;;8402408;28;20297;-71
2023/08/16 08:13:36;;;;;;;;;;;20.10;99.90;;;;;;8403773;28;20398;-71
2023/08/16 08:17:38;;;;;;;;;;;20.20;99.90;;;;;;8400380;28;19974;-71
2023/08/16 08:21:40;;;;;;;;;;;20.20;99.90;;;;;;8403063;28;19939;-71
2023/08/16 08:25:44;;;;;;;;;;;20.30;99.90;;;;;;8399247;28;20335;-71
2023/08/16 08:29:46;;;;;;;;;;;20.30;99.90;;;;;;8399915;28;19924;-70
2023/08/16 08:33:47;;;;;;;;;;;20.40;99.90;;;;;;8400983;28;20365;-71
2023/08/16 08:37:49;;;;;;;;;;;20.40;99.90;;;;;;8417732;28;19935;-70
2023/08/16 08:41:51;;;;;;;;;;;20.50;99.90;;;;;;8415120;28;20325;-71
2023/08/16 08:45:53;;;;;;;;;;;20.50;99.90;;;;;;8394999;28;20128;-71
2023/08/16 08:49:57;;;;;;;;;;;20.50;99.90;;;;;;8395527;28;19925;-71
2023/08/16 08:53:58;;;;;;;;;;;20.50;99.90;;;;;;8399452;28;19924;-70
2023/08/16 08:58:01;;;;;;;;;;;20.60;99.90;;;;;;8402320;28;19955;-71
2023/08/16 09:02:04;;;;;;;;;;;20.60;99.90;;;;;;8401445;28;19967;-71
2023/08/16 09:06:06;;;;;;;;;;;20.70;99.90;;;;;;8401687;28;19996;-71
2023/08/16 09:10:09;;;;;;;;;;;20.80;99.90;;;;;;8406069;28;19931;-71
2023/08/16 09:14:11;;;;;;;;;;;20.90;99.90;;;;;;8394057;28;19968;-71
2023/08/16 09:18:13;;;;;;;;;;;21.00;99.90;;;;;;8398450;28;19931;-70
2023/08/16 09:22:16;;;;;;;;;;;21.10;99.90;;;;;;8396433;28;19925;-71
2023/08/16 09:26:18;;;;;;;;;;;21.20;99.90;;;;;;8398746;28;20367;-71
2023/08/16 09:30:19;;;;;;;;;;;21.30;99.90;;;;;;8402827;28;19932;-71
2023/08/16 09:34:21;;;;;;;;;;;21.30;99.90;;;;;;8400136;28;19940;-70
2023/08/16 09:38:40;;;;;;;;;;;21.40;99.90;;;;;;8403918;28;20394;-70
2023/08/16 09:42:41;;;;;;;;;;;21.50;99.90;;;;;;8400912;28;24205;-71
2023/08/16 09:46:43;;;;;;;;;;;21.60;99.90;;;;;;8396886;28;19932;-70
2023/08/16 09:50:49;;;;;;;;;;;21.70;99.90;;;;;;8402476;28;19959;-70
2023/08/16 09:55:10;;;;;;;;;;;21.80;99.90;;;;;;8408200;28;19951;-71
2023/08/16 09:59:12;;;;;;;;;;;21.80;99.90;;;;;;8399957;28;20300;-70
2023/08/16 10:03:16;;;;;;;;;;;21.90;99.90;;;;;;8403469;28;19924;-70
2023/08/16 10:07:18;;;;;;;;;;;22.00;99.90;;;;;;8407643;28;19924;-71
2023/08/16 10:11:20;;;;;;;;;;;22.10;99.90;;;;;;8405599;28;19924;-70
2023/08/16 10:15:22;;;;;;;;;;;22.10;99.90;;;;;;8411680;28;20610;-71
2023/08/16 10:19:24;;;;;;;;;;;22.20;99.90;;;;;;8405624;28;20277;-70
2023/08/16 10:23:27;;;;;;;;;;;22.20;99.90;;;;;;8404486;28;19932;-71
2023/08/16 10:27:28;;;;;;;;;;;22.20;99.90;;;;;;8396033;28;19924;-71
2023/08/16 10:31:34;;;;;;;;;;;22.20;99.90;;;;;;8410424;28;19931;-71
2023/08/16 10:35:38;;;;;;;;;;;22.10;99.90;;;;;;8405887;28;19978;-71
2023/08/16 10:39:47;;;;;;;;;;;22.00;99.90;;;;;;8401017;28;20338;-71
2023/08/16 10:44:10;;;;;;;;;;;21.90;99.90;;;;;;8399517;28;20374;-71
2023/08/16 10:48:16;;;;;;;;;;;21.90;99.90;;;;;;8407551;28;19940;-71
2023/08/16 10:52:25;;;;;;;;;;;21.90;99.90;;;;;;8408049;28;19953;-70
2023/08/16 10:56:35;;;;;;;;;;;22.00;99.90;;;;;;8407689;28;20287;-71
2023/08/16 11:00:39;;;;;;;;;;;22.10;99.90;;;;;;8405035;28;19961;-71
2023/08/16 11:04:46;;;;;;;;;;;22.20;99.90;;;;;;8398967;28;20265;-71
2023/08/16 11:08:49;;;;;;;;;;;22.30;99.90;;;;;;8402231;28;19932;-71
2023/08/16 11:12:51;;;;;;;;;;;22.30;99.90;;;;;;8407459;28;19928;-70
2023/08/16 11:16:55;;;;;;;;;;;22.40;99.90;;;;;;8402979;28;19954;-71
2023/08/16 11:21:00;;;;;;;;;;;22.50;99.90;;;;;;8402042;28;20284;-71
2023/08/16 11:25:02;;;;;;;;;;;22.50;99.90;;;;;;8407363;28;19924;-70
2023/08/16 11:29:03;;;;;;;;;;;22.60;99.90;;;;;;8410181;28;19940;-70
2023/08/16 11:33:12;;;;;;;;;;;22.60;99.90;;;;;;8406964;28;19935;-70
2023/08/16 11:37:18;;;;;;;;;;;22.60;99.90;;;;;;8402875;28;19935;-70
2023/08/16 11:41:21;;;;;;;;;;;22.60;99.90;;;;;;8405763;28;20365;-70
2023/08/16 11:45:26;;;;;;;;;;;22.70;99.90;;;;;;8400520;28;20283;-71
2023/08/16 11:49:28;;;;;;;;;;;22.70;99.90;;;;;;8403963;28;20276;-70
2023/08/16 11:53:34;;;;;;;;;;;22.80;99.90;;;;;;8422594;28;20415;-71
2023/08/16 11:57:45;;;;;;;;;;;23.00;99.90;;;;;;8404770;28;19928;-71
2023/08/16 12:01:47;;;;;;;;;;;23.00;99.90;;;;;;8401938;28;19928;-71
2023/08/16 12:05:49;;;;;;;;;;;23.10;99.90;;;;;;8397949;28;20372;-70
2023/08/16 12:09:51;;;;;;;;;;;23.10;99.90;;;;;;8399910;28;19928;-71
2023/08/16 12:13:53;;;;;;;;;;;23.10;99.90;;;;;;8403950;28;19978;-71
2023/08/16 12:17:55;;;;;;;;;;;23.20;99.90;;;;;;8387881;28;19928;-71
2023/08/16 12:21:57;;;;;;;;;;;23.20;99.90;;;;;;8404487;28;19928;-71
2023/08/16 12:25:58;;;;;;;;;;;23.30;99.90;;;;;;8395063;28;19932;-70
2023/08/16 12:30:00;;;;;;;;;;;23.30;99.90;;;;;;8399989;28;19928;-71
2023/08/16 12:34:02;;;;;;;;;;;23.40;99.90;;;;;;8400810;28;19924;-71
2023/08/16 12:38:03;;;;;;;;;;;23.40;99.90;;;;;;8398294;28;19960;-71
2023/08/16 12:42:05;;;;;;;;;;;23.40;99.90;;;;;;8399631;28;19939;-71
2023/08/16 12:46:07;;;;;;;;;;;23.40;99.90;;;;;;8397563;28;19985;-71
2023/08/16 12:50:09;;;;;;;;;;;23.40;99.90;;;;;;8392978;28;19935;-71
2023/08/16 12:54:11;;;;;;;;;;;23.50;99.90;;;;;;8398329;28;19924;-71
2023/08/16 12:58:12;;;;;;;;;;;23.50;99.90;;;;;;8399285;28;19932;-71
2023/08/16 13:02:17;;;;;;;;;;;23.60;99.90;;;;;;8401828;28;19970;-71
2023/08/16 13:06:19;;;;;;;;;;;23.70;99.90;;;;;;8395402;28;20634;-71
2023/08/16 13:10:32;;;;;;;;;;;23.80;99.90;;;;;;8403136;28;19934;-71
2023/08/16 13:14:54;;;;;;;;;;;23.80;99.90;;;;;;8394097;28;19925;-71
2023/08/16 13:18:56;;;;;;;;;;;23.80;99.90;;;;;;8398177;28;19970;-72
2023/08/16 13:23:00;;;;;;;;;;;23.70;99.90;;;;;;8399590;28;19928;-71
2023/08/16 13:27:09;;;;;;;;;;;23.70;99.90;;;;;;8403548;28;20506;-70
2023/08/16 13:31:19;;;;;;;;;;;23.70;99.90;;;;;;8411885;28;19931;-71
2023/08/16 13:35:41;;;;;;;;;;;23.70;99.90;;;;;;8416730;28;20007;-71
2023/08/16 13:39:51;;;;;;;;;;;23.80;99.90;;;;;;8409162;28;19928;-69
2023/08/16 13:43:57;;;;;;;;;;;23.90;99.90;;;;;;8407207;28;19978;-71
2023/08/16 13:48:17;;;;;;;;;;;23.90;99.90;;;;;;8422166;28;19923;-71
2023/08/16 13:52:19;;;;;;;;;;;23.90;99.90;;;;;;8410368;28;19925;-71
2023/08/16 13:56:21;;;;;;;;;;;23.90;99.90;;;;;;8411473;28;19946;-71
2023/08/16 14:00:29;;;;;;;;;;;23.90;99.90;;;;;;8411762;28;19993;-71
2023/08/16 14:04:32;;;;;;;;;;;24.00;99.90;;;;;;8411093;28;19935;-71
2023/08/16 14:08:34;;;;;;;;;;;24.00;99.90;;;;;;8408019;28;20291;-71
2023/08/16 14:12:36;;;;;;;;;;;24.00;99.90;;;;;;8402056;28;19936;-71
2023/08/16 14:16:37;;;;;;;;;;;24.00;99.90;;;;;;8402315;28;20386;-71
2023/08/16 14:20:40;;;;;;;;;;;24.00;99.90;;;;;;8403287;28;19924;-71
2023/08/16 14:24:41;;;;;;;;;;;24.00;99.90;;;;;;8417915;28;20319;-71
2023/08/16 14:28:43;;;;;;;;;;;24.00;99.90;;;;;;8402483;28;19925;-71
2023/08/16 14:32:44;;;;;;;;;;;24.10;99.90;;;;;;8409650;28;19928;-71
2023/08/16 14:36:46;;;;;;;;;;;24.00;99.90;;;;;;8405637;28;19963;-71
2023/08/16 14:40:48;;;;;;;;;;;24.10;99.90;;;;;;8401422;28;19936;-71
2023/08/16 14:44:49;;;;;;;;;;;24.10;99.90;;;;;;8402357;28;20001;-71
2023/08/16 14:48:51;;;;;;;;;;;24.20;99.90;;;;;;8400502;28;19930;-71
2023/08/16 14:52:53;;;;;;;;;;;24.20;99.90;;;;;;8393766;28;19935;-71
2023/08/16 14:56:55;;;;;;;;;;;24.20;99.90;;;;;;8398712;28;20027;-71
2023/08/16 15:00:56;;;;;;;;;;;24.20;99.90;;;;;;8413492;28;19973;-71
2023/08/16 15:04:59;;;;;;;;;;;24.20;99.90;;;;;;8395003;28;21556;-71
2023/08/16 15:09:04;;;;;;;;;;;24.20;99.90;;;;;;8402196;28;19929;-71
2023/08/16 15:13:08;;;;;;;;;;;24.10;99.90;;;;;;8397182;28;19968;-71
2023/08/16 15:17:10;;;;;;;;;;;24.10;99.90;;;;;;8393222;28;19924;-71
2023/08/16 15:21:11;;;;;;;;;;;24.00;99.90;;;;;;8399337;28;19924;-71
2023/08/16 15:25:13;;;;;;;;;;;24.00;99.90;;;;;;8399260;28;19928;-71
2023/08/16 15:29:15;;;;;;;;;;;24.00;99.90;;;;;;8399956;28;19933;-71
2023/08/16 15:33:16;;;;;;;;;;;24.00;99.90;;;;;;8401826;28;19954;-71
2023/08/16 15:37:19;;;;;;;;;;;23.90;99.90;;;;;;8403905;28;19924;-71
2023/08/16 15:41:20;;;;;;;;;;;23.90;99.90;;;;;;8396653;28;19932;-70
2023/08/16 15:45:22;;;;;;;;;;;23.90;99.90;;;;;;8409618;28;19931;-71
2023/08/16 15:49:24;;;;;;;;;;;23.90;99.90;;;;;;8399138;28;19932;-71
2023/08/16 15:53:26;;;;;;;;;;;23.90;99.90;;;;;;8399951;28;19924;-70
2023/08/16 15:57:27;;;;;;;;;;;23.90;99.90;;;;;;8377757;28;20442;-72
2023/08/16 16:01:29;;;;;;;;;;;23.90;99.90;;;;;;8401444;28;20399;-72
2023/08/16 16:05:32;;;;;;;;;;;23.80;99.90;;;;;;8401423;28;19947;-72
2023/08/16 16:09:33;;;;;;;;;;;23.80;99.90;;;;;;8401202;28;19932;-72
2023/08/16 16:13:35;;;;;;;;;;;23.80;99.90;;;;;;8400266;28;20371;-72
2023/08/16 16:17:36;;;;;;;;;;;23.80;99.90;;;;;;8395843;28;19948;-72
2023/08/16 16:21:39;;;;;;;;;;;23.80;99.90;;;;;;8391201;28;19929;-72
2023/08/16 16:25:41;;;;;;;;;;;23.80;99.90;;;;;;8397033;28;19928;-72
2023/08/16 16:29:42;;;;;;;;;;;23.80;99.90;;;;;;8396735;28;20384;-72
2023/08/16 16:33:44;;;;;;;;;;;23.90;99.90;;;;;;8403721;28;20016;-72
2023/08/16 16:37:47;;;;;;;;;;;23.90;99.90;;;;;;8388377;28;19985;-72
2023/08/16 16:41:49;;;;;;;;;;;23.80;99.90;;;;;;8389029;28;19938;-72
2023/08/16 16:45:50;;;;;;;;;;;23.80;99.90;;;;;;8370062;28;20310;-72
2023/08/16 16:49:52;;;;;;;;;;;23.80;99.90;;;;;;8379239;28;19928;-72
2023/08/16 16:53:54;;;;;;;;;;;23.70;99.90;;;;;;8389518;28;19932;-72
2023/08/16 16:57:55;;;;;;;;;;;23.70;99.90;;;;;;8398110;28;19933;-72
2023/08/16 17:01:57;;;;;;;;;;;23.60;99.90;;;;;;8388123;28;19981;-72
2023/08/16 17:06:00;;;;;;;;;;;23.60;99.90;;;;;;8394412;28;19924;-72
2023/08/16 17:10:02;;;;;;;;;;;23.50;99.90;;;;;;8388086;28;19924;-72
2023/08/16 17:14:04;;;;;;;;;;;23.50;99.90;;;;;;8383900;28;19933;-72
2023/08/16 17:18:05;;;;;;;;;;;23.40;99.90;;;;;;8386332;28;19929;-73
2023/08/16 17:22:07;;;;;;;;;;;23.40;99.90;;;;;;8388548;28;19928;-72
2023/08/16 17:26:09;;;;;;;;;;;23.40;99.90;;;;;;8387984;28;19987;-72
2023/08/16 17:30:11;;;;;;;;;;;23.30;99.90;;;;;;8399564;28;19929;-72
2023/08/16 17:34:12;;;;;;;;;;;23.30;99.90;;;;;;8383626;28;19971;-72
2023/08/16 17:38:14;;;;;;;;;;;23.30;99.90;;;;;;8394514;28;19925;-72
2023/08/16 17:42:16;;;;;;;;;;;23.30;99.90;;;;;;8394599;28;20392;-72
2023/08/16 17:46:18;;;;;;;;;;;23.20;99.90;;;;;;8396133;28;20376;-72
2023/08/16 17:50:22;;;;;;;;;;;23.20;99.90;;;;;;8394669;28;20343;-73
2023/08/16 17:54:23;;;;;;;;;;;23.20;99.90;;;;;;8389346;28;20380;-72
2023/08/16 17:58:26;;;;;;;;;;;23.20;99.90;;;;;;8387733;28;19932;-72
2023/08/16 18:02:28;;;;;;;;;;;23.10;99.90;;;;;;8385366;28;19928;-72
2023/08/16 18:06:30;;;;;;;;;;;23.10;99.90;;;;;;8382748;28;19940;-72
2023/08/16 18:10:32;;;;;;;;;;;23.00;99.90;;;;;;8381864;28;20304;-72
2023/08/16 18:14:34;;;;;;;;;;;23.00;99.90;;;;;;8390222;28;19929;-72
2023/08/16 18:18:35;;;;;;;;;;;23.00;99.90;;;;;;8387815;28;19932;-72
2023/08/16 18:22:37;;;;;;;;;;;23.00;99.90;;;;;;8390251;28;19945;-72
2023/08/16 18:26:39;;;;;;;;;;;23.00;99.90;;;;;;8398677;28;19928;-72
2023/08/16 18:30:41;;;;;;;;;;;22.90;99.90;;;;;;8404775;28;19978;-72
2023/08/16 18:34:43;;;;;;;;;;;22.90;99.90;;;;;;8382268;28;19925;-72
2023/08/16 18:38:45;;;;;;;;;;;22.90;99.90;;;;;;8391734;28;19982;-72
2023/08/16 18:42:47;;;;;;;;;;;22.90;99.90;;;;;;8397113;28;19986;-72
2023/08/16 18:46:49;;;;;;;;;;;22.80;99.90;;;;;;8389423;28;19950;-72
2023/08/16 18:50:51;;;;;;;;;;;22.80;99.90;;;;;;8396755;28;19940;-72
2023/08/16 18:54:52;;;;;;;;;;;22.80;99.90;;;;;;8387544;28;19933;-72
2023/08/16 18:58:54;;;;;;;;;;;22.80;99.90;;;;;;8378213;28;20292;-72
2023/08/16 19:02:56;;;;;;;;;;;22.80;99.90;;;;;;8389771;28;19929;-72
2023/08/16 19:06:57;;;;;;;;;;;22.70;99.90;;;;;;8375250;28;19924;-73
2023/08/16 19:10:59;;;;;;;;;;;22.60;99.90;;;;;;8398361;28;19939;-72
2023/08/16 19:15:01;;;;;;;;;;;22.60;99.90;;;;;;8393490;28;20020;-72
2023/08/16 19:19:02;;;;;;;;;;;22.60;99.90;;;;;;8391239;28;19924;-72
2023/08/16 19:23:04;;;;;;;;;;;22.60;99.90;;;;;;8389691;28;19928;-72
2023/08/16 19:27:06;;;;;;;;;;;22.50;99.90;;;;;;8386731;28;19952;-72
2023/08/16 19:31:08;;;;;;;;;;;22.50;99.90;;;;;;8389789;28;19981;-72
2023/08/16 19:35:10;;;;;;;;;;;22.40;99.90;;;;;;8391850;28;20410;-72
2023/08/16 19:39:13;;;;;;;;;;;22.40;99.90;;;;;;8394378;28;20375;-72
2023/08/16 19:43:15;;;;;;;;;;;22.30;99.90;;;;;;8396231;28;20359;-72
2023/08/16 19:47:17;;;;;;;;;;;22.30;99.90;;;;;;8379748;28;19928;-72
2023/08/16 19:51:18;;;;;;;;;;;22.30;99.90;;;;;;8390807;28;19929;-73
2023/08/16 19:55:20;;;;;;;;;;;22.30;99.90;;;;;;8398816;28;19989;-72
2023/08/16 19:59:22;;;;;;;;;;;22.30;99.90;;;;;;8391887;28;19928;-73
2023/08/16 20:03:24;;;;;;;;;;;22.20;99.90;;;;;;8408381;28;19973;-72
2023/08/16 20:07:25;;;;;;;;;;;22.20;99.90;;;;;;8387538;28;19924;-72
2023/08/16 20:11:27;;;;;;;;;;;22.20;99.90;;;;;;8391190;28;19935;-72
2023/08/16 20:15:30;;;;;;;;;;;22.10;99.90;;;;;;8391101;28;19932;-72
2023/08/16 20:19:31;;;;;;;;;;;22.10;99.90;;;;;;8397967;28;19947;-72
2023/08/16 20:23:33;;;;;;;;;;;22.00;99.90;;;;;;8395724;28;19932;-72
2023/08/16 20:27:35;;;;;;;;;;;21.90;99.90;;;;;;8389551;28;19924;-72
2023/08/16 20:31:36;;;;;;;;;;;21.90;99.90;;;;;;8391245;28;19936;-72
2023/08/16 20:35:38;;;;;;;;;;;21.80;99.90;;;;;;8389213;28;20264;-72
2023/08/16 20:39:40;;;;;;;;;;;21.70;99.90;;;;;;8393406;28;19928;-72
2023/08/16 20:43:42;;;;;;;;;;;21.70;99.90;;;;;;8388152;28;19932;-72
2023/08/16 20:47:43;;;;;;;;;;;21.60;99.90;;;;;;8386651;28;19928;-72
2023/08/16 20:51:45;;;;;;;;;;;21.50;99.90;;;;;;8385969;28;19928;-72
2023/08/16 20:55:47;;;;;;;;;;;21.50;99.90;;;;;;8399551;28;20366;-73
2023/08/16 20:59:49;;;;;;;;;;;21.40;99.90;;;;;;8385331;28;19962;-72
2023/08/16 21:03:51;;;;;;;;;;;21.40;99.90;;;;;;8413727;28;19997;-72
2023/08/16 21:07:53;;;;;;;;;;;21.40;99.90;;;;;;8407957;28;19935;-72
2023/08/16 21:11:54;;;;;;;;;;;21.30;99.90;;;;;;8417826;28;19928;-72
2023/08/16 21:15:56;;;;;;;;;;;21.30;99.90;;;;;;8422504;28;20514;-72
2023/08/16 21:19:58;;;;;;;;;;;21.30;99.90;;;;;;8422742;28;20046;-72
2023/08/16 21:23:59;;;;;;;;;;;21.20;99.90;;;;;;8418661;28;19951;-72
2023/08/16 21:28:01;;;;;;;;;;;21.20;99.90;;;;;;8418402;28;20278;-72
2023/08/16 21:32:03;;;;;;;;;;;21.20;99.90;;;;;;8416570;28;19932;-72
2023/08/16 21:36:04;;;;;;;;;;;21.10;99.90;;;;;;8397278;28;20445;-72
2023/08/16 21:40:06;;;;;;;;;;;21.10;99.90;;;;;;8418325;28;19939;-72
2023/08/16 21:44:08;;;;;;;;;;;21.00;99.90;;;;;;8426396;28;19932;-72
2023/08/16 21:48:10;;;;;;;;;;;21.00;99.90;;;;;;8409338;28;19932;-72
2023/08/16 21:52:11;;;;;;;;;;;20.90;99.90;;;;;;8401532;28;19932;-72
2023/08/16 21:56:13;;;;;;;;;;;20.90;99.90;;;;;;8416259;28;19932;-72
2023/08/16 22:00:15;;;;;;;;;;;20.80;99.90;;;;;;8420291;28;19943;-72
2023/08/16 22:04:17;;;;;;;;;;;20.80;99.90;;;;;;8418675;28;20006;-72
2023/08/16 22:08:19;;;;;;;;;;;20.70;99.90;;;;;;8424116;28;19932;-72
2023/08/16 22:12:23;;;;;;;;;;;20.60;99.90;;;;;;8421128;28;20627;-72
2023/08/16 22:16:26;;;;;;;;;;;20.60;99.90;;;;;;8424888;28;20372;-72
2023/08/16 22:20:28;;;;;;;;;;;20.60;99.90;;;;;;8430384;28;19932;-72
2023/08/16 22:24:29;;;;;;;;;;;20.60;99.90;;;;;;8413624;28;19924;-72
2023/08/16 22:28:32;;;;;;;;;;;20.50;99.90;;;;;;8429644;28;19946;-72
2023/08/16 22:32:33;;;;;;;;;;;20.40;99.90;;;;;;8421211;28;19924;-72
2023/08/16 22:36:35;;;;;;;;;;;20.40;99.90;;;;;;8439768;28;20038;-72
2023/08/16 22:40:37;;;;;;;;;;;20.40;99.90;;;;;;8421267;28;19924;-72
2023/08/16 22:54:45;;;;;;;;;;;20.30;99.90;;;;;;8421631;28;19923;-72
2023/08/16 22:58:47;;;;;;;;;;;20.30;99.90;;;;;;8418031;28;21995;-72
2023/08/16 23:02:48;;;;;;;;;;;20.30;99.90;;;;;;8412653;28;19950;-72
2023/08/16 23:06:50;;;;;;;;;;;20.20;99.90;;;;;;8431557;28;19924;-72
2023/08/16 23:10:53;;;;;;;;;;;20.20;99.90;;;;;;8427062;28;19977;-72
2023/08/16 23:14:54;;;;;;;;;;;20.20;99.90;;;;;;8412462;28;20333;-72
2023/08/16 23:18:58;;;;;;;;;;;20.20;99.90;;;;;;8420325;28;19939;-72
2023/08/16 23:22:59;;;;;;;;;;;20.20;99.90;;;;;;8414205;28;19928;-72
2023/08/16 23:27:01;;;;;;;;;;;20.20;99.90;;;;;;8415072;28;19924;-72
2023/08/16 23:31:03;;;;;;;;;;;20.10;99.90;;;;;;8411916;28;20020;-72
2023/08/16 23:35:05;;;;;;;;;;;20.10;99.90;;;;;;8404178;28;20375;-72
2023/08/16 23:39:06;;;;;;;;;;;20.00;99.90;;;;;;8415492;28;20469;-72